Terminal Aerodrome Forecast
Issued by NWS

Home | Current Version | Previous Version | Text Only | Print | Product List | Glossary On
Versions: 1 2 3 4 5 6 7 8 9 10 11 12 13 14 15 16 17 18 19 20 21 22 23 24 25 26 27 28 29 30
000
FTUS43 KDLH 282100 AAC
TAFBRD
TAF AMD
KBRD 282112Z 2821/0118 21014G24KT P6SM BKN100
     FM010000 21012KT P6SM SCT035 BKN070
     FM010300 22008KT P6SM -SN SCT020 BKN035
     FM010900 25006KT P6SM SCT030
     FM011600 27010KT P6SM SCT040=

USA.gov is the U.S. government's official web portal to all federal, state and local government web resources and services.